sensor_id;sensor_type;location;lat;lon;timestamp;temperature;humidity
19622;DHT22;9958;33.196;-97.114;2022-08-20T00:02:12;33.00;73.20
19622;DHT22;9958;33.196;-97.114;2022-08-20T00:04:41;33.00;74.20
19622;DHT22;9958;33.196;-97.114;2022-08-20T00:07:10;33.00;73.80
19622;DHT22;9958;33.196;-97.114;2022-08-20T00:09:38;32.90;74.20
19622;DHT22;9958;33.196;-97.114;2022-08-20T00:12:08;32.80;73.90
19622;DHT22;9958;33.196;-97.114;2022-08-20T00:14:36;32.80;73.90
19622;DHT22;9958;33.196;-97.114;2022-08-20T00:17:05;32.80;74.00
19622;DHT22;9958;33.196;-97.114;2022-08-20T00:19:35;32.70;74.30
19622;DHT22;9958;33.196;-97.114;2022-08-20T00:22:03;32.60;74.10
19622;DHT22;9958;33.196;-97.114;2022-08-20T00:24:32;32.60;75.70
19622;DHT22;9958;33.196;-97.114;2022-08-20T00:27:00;32.50;76.20
19622;DHT22;9958;33.196;-97.114;2022-08-20T00:29:29;32.40;75.20
19622;DHT22;9958;33.196;-97.114;2022-08-20T00:31:57;32.30;75.40
19622;DHT22;9958;33.196;-97.114;2022-08-20T00:34:26;32.20;75.80
19622;DHT22;9958;33.196;-97.114;2022-08-20T00:36:56;32.20;76.80
19622;DHT22;9958;33.196;-97.114;2022-08-20T00:39:24;32.10;78.10
19622;DHT22;9958;33.196;-97.114;2022-08-20T00:41:52;32.00;78.10
19622;DHT22;9958;33.196;-97.114;2022-08-20T00:44:22;31.90;77.50
19622;DHT22;9958;33.196;-97.114;2022-08-20T00:46:52;31.80;76.40
19622;DHT22;9958;33.196;-97.114;2022-08-20T00:49:25;31.80;77.10
19622;DHT22;9958;33.196;-97.114;2022-08-20T00:51:58;31.70;78.20
19622;DHT22;9958;33.196;-97.114;2022-08-20T00:54:32;31.60;77.70
19622;DHT22;9958;33.196;-97.114;2022-08-20T00:57:03;31.60;78.10
19622;DHT22;9958;33.196;-97.114;2022-08-20T00:59:34;31.40;78.60
19622;DHT22;9958;33.196;-97.114;2022-08-20T01:02:08;31.40;80.40
19622;DHT22;9958;33.196;-97.114;2022-08-20T01:04:37;31.30;81.50
19622;DHT22;9958;33.196;-97.114;2022-08-20T01:07:07;31.20;82.70
19622;DHT22;9958;33.196;-97.114;2022-08-20T01:09:37;31.10;82.90
19622;DHT22;9958;33.196;-97.114;2022-08-20T01:12:06;31.00;83.00
19622;DHT22;9958;33.196;-97.114;2022-08-20T01:14:35;30.90;83.70
19622;DHT22;9958;33.196;-97.114;2022-08-20T01:17:09;30.80;84.70
19622;DHT22;9958;33.196;-97.114;2022-08-20T01:19:43;30.60;84.70
19622;DHT22;9958;33.196;-97.114;2022-08-20T01:22:18;30.60;84.30
19622;DHT22;9958;33.196;-97.114;2022-08-20T01:25:09;30.40;85.60
19622;DHT22;9958;33.196;-97.114;2022-08-20T01:27:40;30.30;86.70
19622;DHT22;9958;33.196;-97.114;2022-08-20T01:30:10;30.20;86.80
19622;DHT22;9958;33.196;-97.114;2022-08-20T01:32:38;30.10;88.90
19622;DHT22;9958;33.196;-97.114;2022-08-20T01:35:08;30.00;90.10
19622;DHT22;9958;33.196;-97.114;2022-08-20T01:37:36;29.90;89.90
19622;DHT22;9958;33.196;-97.114;2022-08-20T01:40:07;29.80;89.60
19622;DHT22;9958;33.196;-97.114;2022-08-20T01:42:43;29.70;90.00
19622;DHT22;9958;33.196;-97.114;2022-08-20T01:45:15;29.60;90.10
19622;DHT22;9958;33.196;-97.114;2022-08-20T01:47:43;29.50;90.60
19622;DHT22;9958;33.196;-97.114;2022-08-20T01:50:17;29.40;90.90
19622;DHT22;9958;33.196;-97.114;2022-08-20T01:52:58;29.30;91.50
19622;DHT22;9958;33.196;-97.114;2022-08-20T01:55:30;29.20;91.70
19622;DHT22;9958;33.196;-97.114;2022-08-20T01:58:01;29.20;91.80
19622;DHT22;9958;33.196;-97.114;2022-08-20T02:00:29;29.00;91.70
19622;DHT22;9958;33.196;-97.114;2022-08-20T02:03:00;28.90;92.20
19622;DHT22;9958;33.196;-97.114;2022-08-20T02:05:29;28.90;92.70
19622;DHT22;9958;33.196;-97.114;2022-08-20T02:07:57;28.80;93.20
19622;DHT22;9958;33.196;-97.114;2022-08-20T02:10:27;28.70;93.40
19622;DHT22;9958;33.196;-97.114;2022-08-20T02:12:56;28.60;93.40
19622;DHT22;9958;33.196;-97.114;2022-08-20T02:15:27;28.60;93.80
19622;DHT22;9958;33.196;-97.114;2022-08-20T02:17:55;28.50;94.40
19622;DHT22;9958;33.196;-97.114;2022-08-20T02:20:28;28.40;94.60
19622;DHT22;9958;33.196;-97.114;2022-08-20T02:22:58;28.40;94.70
19622;DHT22;9958;33.196;-97.114;2022-08-20T02:25:28;28.20;94.90
19622;DHT22;9958;33.196;-97.114;2022-08-20T02:27:58;28.20;95.10
19622;DHT22;9958;33.196;-97.114;2022-08-20T02:30:31;28.10;95.20
19622;DHT22;9958;33.196;-97.114;2022-08-20T02:33:01;28.10;95.60
19622;DHT22;9958;33.196;-97.114;2022-08-20T02:35:30;28.00;96.00
19622;DHT22;9958;33.196;-97.114;2022-08-20T02:37:58;27.90;96.50
19622;DHT22;9958;33.196;-97.114;2022-08-20T02:40:27;27.90;97.00
19622;DHT22;9958;33.196;-97.114;2022-08-20T02:42:55;27.80;97.00
19622;DHT22;9958;33.196;-97.114;2022-08-20T02:45:24;27.70;97.20
19622;DHT22;9958;33.196;-97.114;2022-08-20T02:47:54;27.60;97.60
19622;DHT22;9958;33.196;-97.114;2022-08-20T02:50:25;27.60;98.00
19622;DHT22;9958;33.196;-97.114;2022-08-20T02:52:54;27.50;98.10
19622;DHT22;9958;33.196;-97.114;2022-08-20T02:55:23;27.50;98.80
19622;DHT22;9958;33.196;-97.114;2022-08-20T02:57:54;27.50;98.90
19622;DHT22;9958;33.196;-97.114;2022-08-20T03:00:23;27.40;99.10
19622;DHT22;9958;33.196;-97.114;2022-08-20T03:02:53;27.40;99.40
19622;DHT22;9958;33.196;-97.114;2022-08-20T03:05:22;27.30;99.60
19622;DHT22;9958;33.196;-97.114;2022-08-20T03:07:52;27.20;99.90
19622;DHT22;9958;33.196;-97.114;2022-08-20T03:10:22;27.20;99.90
19622;DHT22;9958;33.196;-97.114;2022-08-20T03:12:51;27.20;99.90
19622;DHT22;9958;33.196;-97.114;2022-08-20T03:15:19;27.20;99.90
19622;DHT22;9958;33.196;-97.114;2022-08-20T03:17:48;27.20;99.90
19622;DHT22;9958;33.196;-97.114;2022-08-20T03:20:18;27.10;99.90
19622;DHT22;9958;33.196;-97.114;2022-08-20T03:22:46;27.10;99.90
19622;DHT22;9958;33.196;-97.114;2022-08-20T03:25:15;27.00;99.90
19622;DHT22;9958;33.196;-97.114;2022-08-20T03:27:44;27.00;99.90
19622;DHT22;9958;33.196;-97.114;2022-08-20T03:30:14;26.90;99.90
19622;DHT22;9958;33.196;-97.114;2022-08-20T03:32:43;26.80;99.90
19622;DHT22;9958;33.196;-97.114;2022-08-20T03:35:13;26.80;99.90
19622;DHT22;9958;33.196;-97.114;2022-08-20T03:37:43;26.80;99.90
19622;DHT22;9958;33.196;-97.114;2022-08-20T03:40:14;26.80;99.90
19622;DHT22;9958;33.196;-97.114;2022-08-20T03:42:42;26.70;99.90
19622;DHT22;9958;33.196;-97.114;2022-08-20T03:45:11;26.70;99.90
19622;DHT22;9958;33.196;-97.114;2022-08-20T03:47:40;26.70;99.90
19622;DHT22;9958;33.196;-97.114;2022-08-20T03:50:10;26.60;99.90
19622;DHT22;9958;33.196;-97.114;2022-08-20T03:52:39;26.60;99.90
19622;DHT22;9958;33.196;-97.114;2022-08-20T03:55:10;26.60;99.90
19622;DHT22;9958;33.196;-97.114;2022-08-20T03:57:44;26.60;99.90
19622;DHT22;9958;33.196;-97.114;2022-08-20T04:00:14;26.60;99.90
19622;DHT22;9958;33.196;-97.114;2022-08-20T04:02:44;26.50;99.90
19622;DHT22;9958;33.196;-97.114;2022-08-20T04:05:12;26.50;99.90
19622;DHT22;9958;33.196;-97.114;2022-08-20T04:07:41;26.50;99.90
19622;DHT22;9958;33.196;-97.114;2022-08-20T04:10:12;26.50;99.90
19622;DHT22;9958;33.196;-97.114;2022-08-20T04:12:40;26.50;99.90
19622;DHT22;9958;33.196;-97.114;2022-08-20T04:15:09;26.50;99.90
19622;DHT22;9958;33.196;-97.114;2022-08-20T04:17:39;26.50;99.90
19622;DHT22;9958;33.196;-97.114;2022-08-20T04:20:10;26.60;99.90
19622;DHT22;9958;33.196;-97.114;2022-08-20T04:22:38;26.60;99.90
19622;DHT22;9958;33.196;-97.114;2022-08-20T04:25:07;26.60;99.90
19622;DHT22;9958;33.196;-97.114;2022-08-20T04:27:38;26.60;99.90
19622;DHT22;9958;33.196;-97.114;2022-08-20T04:30:09;26.70;99.90
19622;DHT22;9958;33.196;-97.114;2022-08-20T04:32:38;26.70;99.90
19622;DHT22;9958;33.196;-97.114;2022-08-20T04:35:09;26.70;99.90
19622;DHT22;9958;33.196;-97.114;2022-08-20T04:37:40;26.70;99.90
19622;DHT22;9958;33.196;-97.114;2022-08-20T04:40:11;26.70;99.90
19622;DHT22;9958;33.196;-97.114;2022-08-20T04:42:59;26.70;99.90
19622;DHT22;9958;33.196;-97.114;2022-08-20T04:45:27;26.80;99.90
19622;DHT22;9958;33.196;-97.114;2022-08-20T04:47:55;26.70;99.90
19622;DHT22;9958;33.196;-97.114;2022-08-20T04:50:24;26.80;99.90
19622;DHT22;9958;33.196;-97.114;2022-08-20T04:52:52;26.70;99.90
19622;DHT22;9958;33.196;-97.114;2022-08-20T04:55:20;26.70;99.90
19622;DHT22;9958;33.196;-97.114;2022-08-20T04:57:48;26.70;99.90
19622;DHT22;9958;33.196;-97.114;2022-08-20T05:00:19;26.70;99.90
19622;DHT22;9958;33.196;-97.114;2022-08-20T05:02:47;26.70;99.90
19622;DHT22;9958;33.196;-97.114;2022-08-20T05:05:16;26.70;99.90
19622;DHT22;9958;33.196;-97.114;2022-08-20T05:07:47;26.70;99.90
19622;DHT22;9958;33.196;-97.114;2022-08-20T05:10:17;26.70;99.90
19622;DHT22;9958;33.196;-97.114;2022-08-20T05:12:45;26.60;99.90
19622;DHT22;9958;33.196;-97.114;2022-08-20T05:15:14;26.60;99.90
19622;DHT22;9958;33.196;-97.114;2022-08-20T05:17:44;26.60;99.90
19622;DHT22;9958;33.196;-97.114;2022-08-20T05:20:16;26.60;99.90
19622;DHT22;9958;33.196;-97.114;2022-08-20T05:22:44;26.60;99.90
19622;DHT22;9958;33.196;-97.114;2022-08-20T05:25:13;26.60;99.90
19622;DHT22;9958;33.196;-97.114;2022-08-20T05:27:41;26.60;99.90
19622;DHT22;9958;33.196;-97.114;2022-08-20T05:30:11;26.60;99.90
19622;DHT22;9958;33.196;-97.114;2022-08-20T05:32:39;26.60;99.90
19622;DHT22;9958;33.196;-97.114;2022-08-20T05:35:09;26.60;99.90
19622;DHT22;9958;33.196;-97.114;2022-08-20T05:37:39;26.60;99.90
19622;DHT22;9958;33.196;-97.114;2022-08-20T05:40:09;26.60;99.90
19622;DHT22;9958;33.196;-97.114;2022-08-20T05:42:39;26.50;99.90
19622;DHT22;9958;33.196;-97.114;2022-08-20T05:45:09;26.50;99.90
19622;DHT22;9958;33.196;-97.114;2022-08-20T05:47:38;26.50;99.90
19622;DHT22;9958;33.196;-97.114;2022-08-20T05:50:10;26.50;99.90
19622;DHT22;9958;33.196;-97.114;2022-08-20T05:52:40;26.50;99.90
19622;DHT22;9958;33.196;-97.114;2022-08-20T05:55:11;26.50;99.90
19622;DHT22;9958;33.196;-97.114;2022-08-20T05:57:40;26.50;99.90
19622;DHT22;9958;33.196;-97.114;2022-08-20T06:00:12;26.50;99.90
19622;DHT22;9958;33.196;-97.114;2022-08-20T06:02:40;26.50;99.90
19622;DHT22;9958;33.196;-97.114;2022-08-20T06:05:33;26.50;99.90
19622;DHT22;9958;33.196;-97.114;2022-08-20T06:08:03;26.40;99.90
19622;DHT22;9958;33.196;-97.114;2022-08-20T06:10:32;26.50;99.90
19622;DHT22;9958;33.196;-97.114;2022-08-20T06:13:00;26.50;99.90
19622;DHT22;9958;33.196;-97.114;2022-08-20T06:15:29;26.50;99.90
19622;DHT22;9958;33.196;-97.114;2022-08-20T06:17:57;26.40;99.90
19622;DHT22;9958;33.196;-97.114;2022-08-20T06:20:26;26.40;99.90
19622;DHT22;9958;33.196;-97.114;2022-08-20T06:22:56;26.40;99.90
19622;DHT22;9958;33.196;-97.114;2022-08-20T06:25:24;26.40;99.90
19622;DHT22;9958;33.196;-97.114;2022-08-20T06:27:52;26.40;99.90
19622;DHT22;9958;33.196;-97.114;2022-08-20T06:30:21;26.40;99.90
19622;DHT22;9958;33.196;-97.114;2022-08-20T06:32:49;26.40;99.90
19622;DHT22;9958;33.196;-97.114;2022-08-20T06:35:17;26.40;99.90
19622;DHT22;9958;33.196;-97.114;2022-08-20T06:37:46;26.40;99.90
19622;DHT22;9958;33.196;-97.114;2022-08-20T06:40:20;26.40;99.90
19622;DHT22;9958;33.196;-97.114;2022-08-20T06:42:50;26.40;99.90
19622;DHT22;9958;33.196;-97.114;2022-08-20T06:45:21;26.40;99.90
19622;DHT22;9958;33.196;-97.114;2022-08-20T06:47:51;26.30;99.90
19622;DHT22;9958;33.196;-97.114;2022-08-20T06:50:25;26.40;99.90
19622;DHT22;9958;33.196;-97.114;2022-08-20T06:52:53;26.30;99.90
19622;DHT22;9958;33.196;-97.114;2022-08-20T06:55:24;26.30;99.90
19622;DHT22;9958;33.196;-97.114;2022-08-20T06:58:04;26.30;99.90
19622;DHT22;9958;33.196;-97.114;2022-08-20T07:00:33;26.30;99.90
19622;DHT22;9958;33.196;-97.114;2022-08-20T07:03:03;26.30;99.90
19622;DHT22;9958;33.196;-97.114;2022-08-20T07:05:33;26.30;99.90
19622;DHT22;9958;33.196;-97.114;2022-08-20T07:08:01;26.30;99.90
19622;DHT22;9958;33.196;-97.114;2022-08-20T07:10:31;26.30;99.90
19622;DHT22;9958;33.196;-97.114;2022-08-20T07:13:00;26.30;99.90
19622;DHT22;9958;33.196;-97.114;2022-08-20T07:15:28;26.30;99.90
19622;DHT22;9958;33.196;-97.114;2022-08-20T07:17:58;26.30;99.90
19622;DHT22;9958;33.196;-97.114;2022-08-20T07:20:26;26.30;99.90
19622;DHT22;9958;33.196;-97.114;2022-08-20T07:22:55;26.30;99.90
19622;DHT22;9958;33.196;-97.114;2022-08-20T07:25:24;26.30;99.90
19622;DHT22;9958;33.196;-97.114;2022-08-20T07:27:59;26.30;99.90
19622;DHT22;9958;33.196;-97.114;2022-08-20T07:30:28;26.20;99.90
19622;DHT22;9958;33.196;-97.114;2022-08-20T07:33:13;26.20;99.90
19622;DHT22;9958;33.196;-97.114;2022-08-20T07:35:42;26.20;99.90
19622;DHT22;9958;33.196;-97.114;2022-08-20T07:38:15;26.20;99.90
19622;DHT22;9958;33.196;-97.114;2022-08-20T07:40:50;26.20;99.90
19622;DHT22;9958;33.196;-97.114;2022-08-20T07:43:20;26.20;99.90
19622;DHT22;9958;33.196;-97.114;2022-08-20T07:45:49;26.20;99.90
19622;DHT22;9958;33.196;-97.114;2022-08-20T07:48:21;26.20;99.90
19622;DHT22;9958;33.196;-97.114;2022-08-20T07:50:51;26.20;99.90
19622;DHT22;9958;33.196;-97.114;2022-08-20T07:53:19;26.10;99.90
19622;DHT22;9958;33.196;-97.114;2022-08-20T07:55:47;26.10;99.90
19622;DHT22;9958;33.196;-97.114;2022-08-20T07:58:20;26.10;99.90
19622;DHT22;9958;33.196;-97.114;2022-08-20T08:00:49;26.10;99.90
19622;DHT22;9958;33.196;-97.114;2022-08-20T08:03:18;26.10;99.90
19622;DHT22;9958;33.196;-97.114;2022-08-20T08:05:48;26.00;99.90
19622;DHT22;9958;33.196;-97.114;2022-08-20T08:08:20;26.00;99.90
19622;DHT22;9958;33.196;-97.114;2022-08-20T08:10:53;26.00;99.90
19622;DHT22;9958;33.196;-97.114;2022-08-20T08:13:24;26.00;99.90
19622;DHT22;9958;33.196;-97.114;2022-08-20T08:15:55;26.00;99.90
19622;DHT22;9958;33.196;-97.114;2022-08-20T08:18:29;25.90;99.90
19622;DHT22;9958;33.196;-97.114;2022-08-20T08:20:58;25.90;99.90
19622;DHT22;9958;33.196;-97.114;2022-08-20T08:23:26;25.90;99.90
19622;DHT22;9958;33.196;-97.114;2022-08-20T08:25:55;25.90;99.90
19622;DHT22;9958;33.196;-97.114;2022-08-20T08:28:26;25.90;99.90
19622;DHT22;9958;33.196;-97.114;2022-08-20T08:30:56;25.90;99.90
19622;DHT22;9958;33.196;-97.114;2022-08-20T08:33:26;25.90;99.90
19622;DHT22;9958;33.196;-97.114;2022-08-20T08:35:54;25.90;99.90
19622;DHT22;9958;33.196;-97.114;2022-08-20T08:38:23;25.90;99.90
19622;DHT22;9958;33.196;-97.114;2022-08-20T08:40:54;25.90;99.90
19622;DHT22;9958;33.196;-97.114;2022-08-20T08:43:25;25.80;99.90
19622;DHT22;9958;33.196;-97.114;2022-08-20T08:45:58;25.80;99.90
19622;DHT22;9958;33.196;-97.114;2022-08-20T08:48:32;25.80;99.90
19622;DHT22;9958;33.196;-97.114;2022-08-20T08:51:04;25.80;99.90
19622;DHT22;9958;33.196;-97.114;2022-08-20T08:53:41;25.80;99.90
19622;DHT22;9958;33.196;-97.114;2022-08-20T08:56:11;25.80;99.90
19622;DHT22;9958;33.196;-97.114;2022-08-20T08:58:42;25.70;99.90
19622;DHT22;9958;33.196;-97.114;2022-08-20T09:01:13;25.70;99.90
19622;DHT22;9958;33.196;-97.114;2022-08-20T09:03:44;25.70;99.90
19622;DHT22;9958;33.196;-97.114;2022-08-20T09:06:15;25.70;99.90
19622;DHT22;9958;33.196;-97.114;2022-08-20T09:08:47;25.70;99.90
19622;DHT22;9958;33.196;-97.114;2022-08-20T09:11:19;25.70;99.90
19622;DHT22;9958;33.196;-97.114;2022-08-20T09:13:49;25.60;99.90
19622;DHT22;9958;33.196;-97.114;2022-08-20T09:16:20;25.60;99.90
19622;DHT22;9958;33.196;-97.114;2022-08-20T09:18:49;25.60;99.90
19622;DHT22;9958;33.196;-97.114;2022-08-20T09:21:18;25.60;99.90
19622;DHT22;9958;33.196;-97.114;2022-08-20T09:23:46;25.60;99.90
19622;DHT22;9958;33.196;-97.114;2022-08-20T09:26:15;25.60;99.90
19622;DHT22;9958;33.196;-97.114;2022-08-20T09:28:43;25.60;99.90
19622;DHT22;9958;33.196;-97.114;2022-08-20T09:31:13;25.60;99.90
19622;DHT22;9958;33.196;-97.114;2022-08-20T09:33:41;25.50;99.90
19622;DHT22;9958;33.196;-97.114;2022-08-20T09:36:09;25.50;99.90
19622;DHT22;9958;33.196;-97.114;2022-08-20T09:38:37;25.50;99.90
19622;DHT22;9958;33.196;-97.114;2022-08-20T09:41:06;25.50;99.90
19622;DHT22;9958;33.196;-97.114;2022-08-20T09:43:34;25.40;99.90
19622;DHT22;9958;33.196;-97.114;2022-08-20T09:46:02;25.50;99.90
19622;DHT22;9958;33.196;-97.114;2022-08-20T09:48:32;25.40;99.90
19622;DHT22;9958;33.196;-97.114;2022-08-20T09:51:00;25.40;99.90
19622;DHT22;9958;33.196;-97.114;2022-08-20T09:53:29;25.30;99.90
19622;DHT22;9958;33.196;-97.114;2022-08-20T09:55:57;25.30;99.90
19622;DHT22;9958;33.196;-97.114;2022-08-20T09:58:35;25.30;99.90
19622;DHT22;9958;33.196;-97.114;2022-08-20T10:01:07;25.30;99.90
19622;DHT22;9958;33.196;-97.114;2022-08-20T10:03:37;25.30;99.90
19622;DHT22;9958;33.196;-97.114;2022-08-20T10:06:06;25.30;99.90
19622;DHT22;9958;33.196;-97.114;2022-08-20T10:08:34;25.30;99.90
19622;DHT22;9958;33.196;-97.114;2022-08-20T10:11:03;25.30;99.90
19622;DHT22;9958;33.196;-97.114;2022-08-20T10:13:31;25.20;99.90
19622;DHT22;9958;33.196;-97.114;2022-08-20T10:15:59;25.20;99.90
19622;DHT22;9958;33.196;-97.114;2022-08-20T10:18:27;25.20;99.90
19622;DHT22;9958;33.196;-97.114;2022-08-20T10:20:57;25.20;99.90
19622;DHT22;9958;33.196;-97.114;2022-08-20T10:23:25;25.20;99.90
19622;DHT22;9958;33.196;-97.114;2022-08-20T10:25:54;25.20;99.90
19622;DHT22;9958;33.196;-97.114;2022-08-20T10:28:22;25.20;99.90
19622;DHT22;9958;33.196;-97.114;2022-08-20T10:30:50;25.20;99.90
19622;DHT22;9958;33.196;-97.114;2022-08-20T10:33:18;25.10;99.90
19622;DHT22;9958;33.196;-97.114;2022-08-20T10:35:46;25.10;99.90
19622;DHT22;9958;33.196;-97.114;2022-08-20T10:38:16;25.10;99.90
19622;DHT22;9958;33.196;-97.114;2022-08-20T10:40:45;25.10;99.90
19622;DHT22;9958;33.196;-97.114;2022-08-20T10:43:13;25.10;99.90
19622;DHT22;9958;33.196;-97.114;2022-08-20T10:45:41;25.00;99.90
19622;DHT22;9958;33.196;-97.114;2022-08-20T10:48:09;25.10;99.90
19622;DHT22;9958;33.196;-97.114;2022-08-20T10:50:37;25.00;99.90
19622;DHT22;9958;33.196;-97.114;2022-08-20T10:53:06;25.10;99.90
19622;DHT22;9958;33.196;-97.114;2022-08-20T10:55:36;25.00;99.90
19622;DHT22;9958;33.196;-97.114;2022-08-20T10:58:04;25.00;99.90
19622;DHT22;9958;33.196;-97.114;2022-08-20T11:00:33;25.00;99.90
19622;DHT22;9958;33.196;-97.114;2022-08-20T11:03:02;25.00;99.90
19622;DHT22;9958;33.196;-97.114;2022-08-20T11:05:30;25.00;99.90
19622;DHT22;9958;33.196;-97.114;2022-08-20T11:08:01;25.00;99.90
19622;DHT22;9958;33.196;-97.114;2022-08-20T11:10:31;25.00;99.90
19622;DHT22;9958;33.196;-97.114;2022-08-20T11:13:02;25.00;99.90
19622;DHT22;9958;33.196;-97.114;2022-08-20T11:15:32;24.90;99.90
19622;DHT22;9958;33.196;-97.114;2022-08-20T11:18:01;24.90;99.90
19622;DHT22;9958;33.196;-97.114;2022-08-20T11:20:29;24.90;99.90
19622;DHT22;9958;33.196;-97.114;2022-08-20T11:22:57;24.90;99.90
19622;DHT22;9958;33.196;-97.114;2022-08-20T11:25:26;24.90;99.90
19622;DHT22;9958;33.196;-97.114;2022-08-20T11:27:55;24.90;99.90
19622;DHT22;9958;33.196;-97.114;2022-08-20T11:30:27;24.80;99.90
19622;DHT22;9958;33.196;-97.114;2022-08-20T11:32:56;24.80;99.90
19622;DHT22;9958;33.196;-97.114;2022-08-20T11:35:25;24.80;99.90
19622;DHT22;9958;33.196;-97.114;2022-08-20T11:37:55;24.80;99.90
19622;DHT22;9958;33.196;-97.114;2022-08-20T11:40:24;24.80;99.90
19622;DHT22;9958;33.196;-97.114;2022-08-20T11:42:53;24.80;99.90
19622;DHT22;9958;33.196;-97.114;2022-08-20T11:45:21;24.80;99.90
19622;DHT22;9958;33.196;-97.114;2022-08-20T11:47:51;24.80;99.90
19622;DHT22;9958;33.196;-97.114;2022-08-20T11:50:20;24.80;99.90
19622;DHT22;9958;33.196;-97.114;2022-08-20T11:52:49;24.80;99.90
19622;DHT22;9958;33.196;-97.114;2022-08-20T11:55:17;24.70;99.90
19622;DHT22;9958;33.196;-97.114;2022-08-20T11:57:47;24.70;99.90
19622;DHT22;9958;33.196;-97.114;2022-08-20T12:00:18;24.70;99.90
19622;DHT22;9958;33.196;-97.114;2022-08-20T12:02:46;24.70;99.90
19622;DHT22;9958;33.196;-97.114;2022-08-20T12:05:19;24.70;99.90
19622;DHT22;9958;33.196;-97.114;2022-08-20T12:07:47;24.70;99.90
19622;DHT22;9958;33.196;-97.114;2022-08-20T12:10:15;24.70;99.90
19622;DHT22;9958;33.196;-97.114;2022-08-20T12:12:44;24.70;99.90
19622;DHT22;9958;33.196;-97.114;2022-08-20T12:15:12;24.70;99.90
19622;DHT22;9958;33.196;-97.114;2022-08-20T12:17:40;24.70;99.90
19622;DHT22;9958;33.196;-97.114;2022-08-20T12:20:10;24.70;99.90
19622;DHT22;9958;33.196;-97.114;2022-08-20T12:22:40;24.80;99.90
19622;DHT22;9958;33.196;-97.114;2022-08-20T12:25:09;24.80;99.90
19622;DHT22;9958;33.196;-97.114;2022-08-20T12:27:39;24.80;99.90
19622;DHT22;9958;33.196;-97.114;2022-08-20T12:30:10;24.90;99.90
19622;DHT22;9958;33.196;-97.114;2022-08-20T12:32:39;25.00;99.90
19622;DHT22;9958;33.196;-97.114;2022-08-20T12:35:09;25.10;99.90
19622;DHT22;9958;33.196;-97.114;2022-08-20T12:37:39;25.60;99.90
19622;DHT22;9958;33.196;-97.114;2022-08-20T12:40:11;26.30;99.90
19622;DHT22;9958;33.196;-97.114;2022-08-20T12:42:39;27.00;99.90
19622;DHT22;9958;33.196;-97.114;2022-08-20T12:45:08;27.90;99.90
19622;DHT22;9958;33.196;-97.114;2022-08-20T12:47:38;28.70;99.90
19622;DHT22;9958;33.196;-97.114;2022-08-20T12:50:08;29.50;99.90
19622;DHT22;9958;33.196;-97.114;2022-08-20T12:52:39;30.10;99.90
19622;DHT22;9958;33.196;-97.114;2022-08-20T12:55:09;30.50;99.90
19622;DHT22;9958;33.196;-97.114;2022-08-20T12:57:41;30.70;99.90
19622;DHT22;9958;33.196;-97.114;2022-08-20T13:00:12;30.70;99.90
19622;DHT22;9958;33.196;-97.114;2022-08-20T13:02:41;30.60;99.90
19622;DHT22;9958;33.196;-97.114;2022-08-20T13:05:11;30.50;99.90
19622;DHT22;9958;33.196;-97.114;2022-08-20T13:07:41;30.30;99.90
19622;DHT22;9958;33.196;-97.114;2022-08-20T13:10:12;30.10;99.90
19622;DHT22;9958;33.196;-97.114;2022-08-20T13:12:41;29.90;99.90
19622;DHT22;9958;33.196;-97.114;2022-08-20T13:15:10;29.70;99.90
19622;DHT22;9958;33.196;-97.114;2022-08-20T13:17:38;29.50;99.90
19622;DHT22;9958;33.196;-97.114;2022-08-20T13:20:09;29.30;99.90
19622;DHT22;9958;33.196;-97.114;2022-08-20T13:22:37;29.20;99.90
19622;DHT22;9958;33.196;-97.114;2022-08-20T13:25:09;29.10;99.90
19622;DHT22;9958;33.196;-97.114;2022-08-20T13:27:40;29.10;99.90
19622;DHT22;9958;33.196;-97.114;2022-08-20T13:30:11;29.00;99.90
19622;DHT22;9958;33.196;-97.114;2022-08-20T13:32:40;29.00;99.90
19622;DHT22;9958;33.196;-97.114;2022-08-20T13:35:09;29.10;99.90
19622;DHT22;9958;33.196;-97.114;2022-08-20T13:37:39;29.10;99.90
19622;DHT22;9958;33.196;-97.114;2022-08-20T13:40:10;29.20;99.90
19622;DHT22;9958;33.196;-97.114;2022-08-20T13:42:38;29.30;99.90
19622;DHT22;9958;33.196;-97.114;2022-08-20T13:45:08;29.40;99.90
19622;DHT22;9958;33.196;-97.114;2022-08-20T13:47:38;29.50;99.90
19622;DHT22;9958;33.196;-97.114;2022-08-20T13:50:09;29.60;99.90
19622;DHT22;9958;33.196;-97.114;2022-08-20T13:52:38;29.80;99.90
19622;DHT22;9958;33.196;-97.114;2022-08-20T13:55:10;29.80;99.90
19622;DHT22;9958;33.196;-97.114;2022-08-20T13:57:39;29.90;99.90
19622;DHT22;9958;33.196;-97.114;2022-08-20T14:00:11;30.00;99.90
19622;DHT22;9958;33.196;-97.114;2022-08-20T14:02:40;30.00;99.90
19622;DHT22;9958;33.196;-97.114;2022-08-20T14:05:09;30.00;99.90
19622;DHT22;9958;33.196;-97.114;2022-08-20T14:07:38;30.00;99.90
19622;DHT22;9958;33.196;-97.114;2022-08-20T14:10:11;30.00;99.90
19622;DHT22;9958;33.196;-97.114;2022-08-20T14:12:40;30.00;99.90
19622;DHT22;9958;33.196;-97.114;2022-08-20T14:15:09;30.00;99.90
19622;DHT22;9958;33.196;-97.114;2022-08-20T14:17:39;30.00;99.90
19622;DHT22;9958;33.196;-97.114;2022-08-20T14:20:12;30.10;99.90
19622;DHT22;9958;33.196;-97.114;2022-08-20T14:22:41;30.20;99.90
19622;DHT22;9958;33.196;-97.114;2022-08-20T14:25:13;30.20;99.90
19622;DHT22;9958;33.196;-97.114;2022-08-20T14:27:42;30.30;99.90
19622;DHT22;9958;33.196;-97.114;2022-08-20T14:30:12;30.30;99.90
19622;DHT22;9958;33.196;-97.114;2022-08-20T14:32:40;30.40;99.90
19622;DHT22;9958;33.196;-97.114;2022-08-20T14:35:09;30.50;99.90
19622;DHT22;9958;33.196;-97.114;2022-08-20T14:37:40;30.60;99.90
19622;DHT22;9958;33.196;-97.114;2022-08-20T14:40:11;30.60;99.90
19622;DHT22;9958;33.196;-97.114;2022-08-20T14:42:40;30.70;99.90
19622;DHT22;9958;33.196;-97.114;2022-08-20T14:45:10;30.80;99.90
19622;DHT22;9958;33.196;-97.114;2022-08-20T14:47:40;30.90;99.90
19622;DHT22;9958;33.196;-97.114;2022-08-20T14:50:12;31.00;99.90
19622;DHT22;9958;33.196;-97.114;2022-08-20T14:52:40;31.10;99.90
19622;DHT22;9958;33.196;-97.114;2022-08-20T14:55:16;31.20;99.90
19622;DHT22;9958;33.196;-97.114;2022-08-20T14:57:44;31.40;99.90
19622;DHT22;9958;33.196;-97.114;2022-08-20T15:00:16;31.50;99.90
19622;DHT22;9958;33.196;-97.114;2022-08-20T15:02:45;31.60;99.90
19622;DHT22;9958;33.196;-97.114;2022-08-20T15:05:14;31.70;99.90
19622;DHT22;9958;33.196;-97.114;2022-08-20T15:07:46;31.90;99.90
19622;DHT22;9958;33.196;-97.114;2022-08-20T15:10:19;32.00;99.90
19622;DHT22;9958;33.196;-97.114;2022-08-20T15:12:47;32.00;99.90
19622;DHT22;9958;33.196;-97.114;2022-08-20T15:15:17;32.10;99.90
19622;DHT22;9958;33.196;-97.114;2022-08-20T15:17:47;32.20;99.90
19622;DHT22;9958;33.196;-97.114;2022-08-20T15:20:18;32.30;99.90
19622;DHT22;9958;33.196;-97.114;2022-08-20T15:22:48;32.40;99.90
19622;DHT22;9958;33.196;-97.114;2022-08-20T15:25:21;32.50;99.90
19622;DHT22;9958;33.196;-97.114;2022-08-20T15:27:50;32.70;99.90
19622;DHT22;9958;33.196;-97.114;2022-08-20T15:30:20;32.80;99.90
19622;DHT22;9958;33.196;-97.114;2022-08-20T15:32:49;33.00;99.90